Time;durP1;ratioP1;P1;durP2;ratioP2;P2;SDS_P1;SDS_P2;PMS_P1;PMS_P2;Temp;Humidity;BMP_temperature;BMP_pressure;BME280_temperature;BME280_humidity;BME280_pressure;Samples;Min_cycle;Max_cycle;Signal;HPM_P1;HPM_P2
2022/03/02 00:00:40;;;;;;;35.55;24.23;;;5.20;99.90;;;;;;5021011;28;20041;-79
2022/03/02 00:03:06;;;;;;;36.55;24.95;;;5.30;99.90;;;;;;5005274;28;20107;-79
2022/03/02 00:05:32;;;;;;;38.72;25.30;;;5.20;99.90;;;;;;5003380;28;20072;-79
2022/03/02 00:07:57;;;;;;;37.92;25.05;;;5.20;99.90;;;;;;5015945;28;20049;-79
2022/03/02 00:10:23;;;;;;;34.97;23.67;;;5.30;99.90;;;;;;5021354;28;20052;-79
2022/03/02 00:12:49;;;;;;;37.08;24.42;;;5.20;99.90;;;;;;5023874;28;20059;-79
2022/03/02 00:15:15;;;;;;;39.00;25.40;;;5.20;99.90;;;;;;5016815;28;20399;-79
2022/03/02 00:17:41;;;;;;;37.33;24.60;;;5.30;99.90;;;;;;5018312;28;20037;-79
2022/03/02 00:20:07;;;;;;;37.63;25.05;;;5.20;99.90;;;;;;5005881;28;20396;-79
2022/03/02 00:22:33;;;;;;;38.75;24.58;;;5.20;99.90;;;;;;5016825;28;20048;-79
2022/03/02 00:24:58;;;;;;;37.17;24.95;;;5.30;99.90;;;;;;5017725;28;20468;-79
2022/03/02 00:27:24;;;;;;;40.25;25.85;;;5.20;99.90;;;;;;5008758;28;22003;-79
2022/03/02 00:29:51;;;;;;;37.33;24.88;;;5.30;99.90;;;;;;5002004;28;20525;-79
2022/03/02 00:32:17;;;;;;;37.85;25.08;;;5.20;99.90;;;;;;5001518;28;20045;-79
2022/03/02 00:34:42;;;;;;;36.92;24.63;;;5.20;99.90;;;;;;5004270;28;20075;-78
2022/03/02 00:37:08;;;;;;;38.65;26.33;;;5.30;99.90;;;;;;5017040;28;20519;-79
2022/03/02 00:39:35;;;;;;;39.60;25.65;;;5.20;99.90;;;;;;5018681;28;20033;-79
2022/03/02 00:42:01;;;;;;;39.00;25.25;;;5.20;99.90;;;;;;5005178;28;20540;-79
2022/03/02 00:44:26;;;;;;;40.17;26.15;;;5.20;99.90;;;;;;5016247;28;20047;-79
2022/03/02 00:46:52;;;;;;;40.67;25.23;;;5.20;99.90;;;;;;5017066;28;20033;-79
2022/03/02 00:49:18;;;;;;;37.53;24.80;;;5.20;99.90;;;;;;5018235;28;20052;-79
2022/03/02 00:51:47;;;;;;;45.15;25.45;;;5.20;99.90;;;;;;5012902;28;20138;-79
2022/03/02 00:54:12;;;;;;;42.05;25.38;;;5.20;99.90;;;;;;5014814;28;20069;-79
2022/03/02 00:56:38;;;;;;;39.13;25.67;;;5.20;99.90;;;;;;5001023;28;20121;-79
2022/03/02 00:59:04;;;;;;;37.90;25.13;;;5.20;99.90;;;;;;5018186;28;20041;-79
2022/03/02 01:01:29;;;;;;;36.70;25.02;;;5.10;99.90;;;;;;5000328;28;20038;-79
2022/03/02 01:03:55;;;;;;;42.70;26.33;;;5.20;99.90;;;;;;5019239;28;20146;-79
2022/03/02 01:06:20;;;;;;;39.22;24.75;;;5.20;99.90;;;;;;5017316;28;20036;-79
2022/03/02 01:08:46;;;;;;;39.35;25.20;;;5.20;99.90;;;;;;5017172;28;20041;-80
2022/03/02 01:11:12;;;;;;;36.22;24.60;;;5.20;99.90;;;;;;5018656;28;20388;-79
2022/03/02 01:13:38;;;;;;;39.42;25.27;;;5.20;99.90;;;;;;5018438;28;20029;-79
2022/03/02 01:16:04;;;;;;;39.20;26.65;;;5.20;99.90;;;;;;5002802;28;20067;-79
2022/03/02 01:18:30;;;;;;;38.35;24.05;;;5.20;99.90;;;;;;5017683;28;20063;-79
2022/03/02 01:20:56;;;;;;;41.38;26.45;;;5.20;99.90;;;;;;5016941;28;20067;-79
2022/03/02 01:23:21;;;;;;;40.85;25.45;;;5.20;99.90;;;;;;5000341;28;20488;-79
2022/03/02 01:25:47;;;;;;;41.65;25.50;;;5.20;99.90;;;;;;5001072;28;20456;-79
2022/03/02 01:28:13;;;;;;;43.22;27.58;;;5.20;99.90;;;;;;5001371;28;20099;-79
2022/03/02 01:30:39;;;;;;;39.83;25.63;;;5.20;99.90;;;;;;5003362;28;20037;-79
2022/03/02 01:33:05;;;;;;;48.40;26.58;;;5.20;99.90;;;;;;5015415;28;20153;-79
2022/03/02 01:35:30;;;;;;;45.20;27.05;;;5.20;99.90;;;;;;5002114;28;20525;-79
2022/03/02 01:37:56;;;;;;;44.70;28.65;;;5.10;99.90;;;;;;5004367;28;20181;-79
2022/03/02 01:40:22;;;;;;;42.70;26.70;;;5.20;99.90;;;;;;5003564;28;20116;-79
2022/03/02 01:42:47;;;;;;;42.50;27.80;;;5.20;99.90;;;;;;5002981;28;20041;-79
2022/03/02 01:45:15;;;;;;;42.72;27.55;;;5.20;99.90;;;;;;5011728;28;20033;-79
2022/03/02 01:47:41;;;;;;;43.78;27.55;;;5.10;99.90;;;;;;4999826;28;20049;-79
2022/03/02 01:50:10;;;;;;;44.90;28.05;;;5.10;99.90;;;;;;5003231;28;20125;-79
2022/03/02 01:52:36;;;;;;;42.40;28.80;;;5.00;99.90;;;;;;5021889;28;20393;-79
2022/03/02 01:55:04;;;;;;;41.83;27.20;;;5.00;99.90;;;;;;5017677;28;20033;-79
2022/03/02 01:57:29;;;;;;;41.22;27.42;;;5.10;99.90;;;;;;5002566;28;20047;-79
2022/03/02 01:59:55;;;;;;;49.08;29.48;;;5.10;99.90;;;;;;5016537;28;20038;-79
2022/03/02 02:02:21;;;;;;;45.10;28.65;;;5.10;99.90;;;;;;5013924;28;20029;-79
2022/03/02 02:04:50;;;;;;;43.95;29.15;;;5.10;99.90;;;;;;5002799;28;20052;-79
2022/03/02 02:07:16;;;;;;;42.58;27.25;;;5.10;99.90;;;;;;5014254;28;20342;-79
2022/03/02 02:09:42;;;;;;;43.60;28.55;;;5.00;99.90;;;;;;5001244;28;20029;-79
2022/03/02 02:12:08;;;;;;;45.83;28.88;;;5.00;99.90;;;;;;4997579;28;20038;-79
2022/03/02 02:14:33;;;;;;;45.97;29.67;;;5.10;99.90;;;;;;5016251;28;20104;-79
2022/03/02 02:16:59;;;;;;;45.13;29.05;;;5.00;99.90;;;;;;4999010;28;20429;-79
2022/03/02 02:19:26;;;;;;;46.50;29.35;;;5.00;99.90;;;;;;5016990;28;20045;-79
2022/03/02 02:21:51;;;;;;;45.30;28.52;;;5.00;99.90;;;;;;4997932;28;20053;-79
2022/03/02 02:24:17;;;;;;;45.45;29.95;;;4.90;99.90;;;;;;5014654;28;20060;-79
2022/03/02 02:26:43;;;;;;;44.35;29.23;;;4.90;99.90;;;;;;5002152;28;20224;-79
2022/03/02 02:29:11;;;;;;;49.08;30.75;;;5.00;99.90;;;;;;5001077;28;20131;-79
2022/03/02 02:31:37;;;;;;;44.72;29.02;;;4.90;99.90;;;;;;5019456;28;20041;-79
2022/03/02 02:34:03;;;;;;;44.83;29.20;;;4.90;99.90;;;;;;5016519;28;20690;-79
2022/03/02 02:36:29;;;;;;;46.78;29.08;;;4.90;99.90;;;;;;5014122;28;20093;-79
2022/03/02 02:38:54;;;;;;;51.30;30.77;;;4.80;99.90;;;;;;5016773;28;20037;-79
2022/03/02 02:41:20;;;;;;;46.33;30.35;;;4.90;99.90;;;;;;5001303;28;20040;-79
2022/03/02 02:43:47;;;;;;;51.17;30.50;;;4.80;99.90;;;;;;5003976;28;20441;-79
2022/03/02 02:46:13;;;;;;;45.15;29.65;;;4.80;99.90;;;;;;4995349;28;20141;-79
2022/03/02 02:48:39;;;;;;;47.80;30.17;;;4.80;99.90;;;;;;5000804;28;20045;-79
2022/03/02 02:51:06;;;;;;;50.47;30.45;;;4.70;99.90;;;;;;5014401;28;20049;-79
2022/03/02 02:53:32;;;;;;;46.72;30.08;;;4.70;99.90;;;;;;4996719;28;20047;-79
2022/03/02 02:55:58;;;;;;;47.15;30.80;;;4.60;99.90;;;;;;5015150;28;20052;-79
2022/03/02 02:58:27;;;;;;;44.15;30.33;;;4.50;99.90;;;;;;5000669;28;20060;-79
2022/03/02 03:00:53;;;;;;;48.15;30.23;;;4.50;99.90;;;;;;5009156;28;20120;-79
2022/03/02 03:03:19;;;;;;;46.00;29.88;;;4.40;99.90;;;;;;5016084;28;20136;-79
2022/03/02 03:05:45;;;;;;;45.83;28.85;;;4.40;99.90;;;;;;5014950;28;20115;-79
2022/03/02 03:08:17;;;;;;;48.05;30.20;;;4.30;99.90;;;;;;5021069;28;20039;-79
2022/03/02 03:10:45;;;;;;;49.88;31.30;;;4.20;99.90;;;;;;4998561;28;20029;-79
2022/03/02 03:13:11;;;;;;;47.42;30.20;;;4.10;99.90;;;;;;5033301;28;20206;-79
2022/03/02 03:15:37;;;;;;;46.90;30.13;;;4.10;99.90;;;;;;5012722;28;20044;-79
2022/03/02 03:18:04;;;;;;;49.75;31.52;;;4.00;99.90;;;;;;5000571;28;20438;-79
2022/03/02 03:20:31;;;;;;;48.72;32.05;;;3.90;99.90;;;;;;5016019;28;20615;-79
2022/03/02 03:23:00;;;;;;;47.97;31.08;;;3.70;99.90;;;;;;5014849;28;20045;-79
2022/03/02 03:25:28;;;;;;;50.65;30.20;;;3.70;99.90;;;;;;5016104;28;20065;-79
2022/03/02 03:27:55;;;;;;;49.40;31.23;;;3.60;99.90;;;;;;5011257;28;20117;-79
2022/03/02 03:30:22;;;;;;;49.55;31.20;;;3.60;99.90;;;;;;5014111;28;20112;-79
2022/03/02 03:32:51;;;;;;;53.05;31.58;;;3.50;99.90;;;;;;4999968;28;20033;-79
2022/03/02 03:35:22;;;;;;;49.03;30.10;;;3.40;99.90;;;;;;5001086;28;20250;-79
2022/03/02 03:37:48;;;;;;;48.67;31.27;;;3.30;99.90;;;;;;5000438;28;20042;-79
2022/03/02 03:40:16;;;;;;;49.42;31.08;;;3.30;99.90;;;;;;5000985;28;20292;-79
2022/03/02 03:42:43;;;;;;;56.90;31.52;;;3.20;99.90;;;;;;5015938;28;20444;-78
2022/03/02 03:45:09;;;;;;;48.08;31.60;;;3.20;99.90;;;;;;5013903;28;20042;-79
2022/03/02 03:47:35;;;;;;;49.00;30.80;;;3.20;99.90;;;;;;5015227;28;20421;-79
2022/03/02 03:50:02;;;;;;;50.00;30.17;;;3.10;99.90;;;;;;4996538;28;20064;-78
2022/03/02 03:52:27;;;;;;;51.78;31.52;;;3.10;99.90;;;;;;4997507;28;20808;-79
2022/03/02 03:54:53;;;;;;;56.58;33.10;;;3.00;99.90;;;;;;5015319;28;20037;-79
2022/03/02 03:57:19;;;;;;;50.25;31.35;;;2.90;99.90;;;;;;5010388;28;20128;-78
2022/03/02 03:59:44;;;;;;;54.47;32.55;;;2.90;99.90;;;;;;5001778;28;20034;-79
2022/03/02 04:02:10;;;;;;;54.95;31.42;;;2.80;99.90;;;;;;5018062;28;20398;-78
2022/03/02 04:04:36;;;;;;;55.78;32.97;;;2.70;99.90;;;;;;5002151;28;20036;-79
2022/03/02 04:07:01;;;;;;;55.88;32.72;;;2.70;99.90;;;;;;5016868;28;20095;-78
2022/03/02 04:09:27;;;;;;;54.17;32.08;;;2.70;99.90;;;;;;5015430;28;20055;-78
2022/03/02 04:11:53;;;;;;;59.13;33.20;;;2.70;99.90;;;;;;5000672;28;20033;-78
2022/03/02 04:14:18;;;;;;;53.45;31.60;;;2.60;99.90;;;;;;5017170;28;20120;-78
2022/03/02 04:16:44;;;;;;;55.72;33.63;;;2.60;99.90;;;;;;4997772;28;20442;-78
2022/03/02 04:19:10;;;;;;;56.33;33.03;;;2.60;99.90;;;;;;5017264;28;20052;-78
2022/03/02 04:21:38;;;;;;;52.22;31.77;;;2.60;99.90;;;;;;5022408;28;20047;-78
2022/03/02 04:24:04;;;;;;;59.15;33.50;;;2.40;99.90;;;;;;4997347;28;20243;-78
2022/03/02 04:26:30;;;;;;;57.58;32.97;;;2.30;99.90;;;;;;5005102;28;20163;-78
2022/03/02 04:28:55;;;;;;;55.25;32.65;;;2.40;99.90;;;;;;5018903;28;20052;-79
2022/03/02 04:31:21;;;;;;;59.92;33.20;;;2.30;99.90;;;;;;5003800;28;20044;-78
2022/03/02 04:33:47;;;;;;;56.60;31.83;;;2.30;99.90;;;;;;5004417;28;20389;-78
2022/03/02 04:36:12;;;;;;;55.67;32.03;;;2.30;99.90;;;;;;5017498;28;20223;-78
2022/03/02 04:38:41;;;;;;;57.72;34.42;;;2.30;99.90;;;;;;5002086;28;20056;-79
2022/03/02 04:41:07;;;;;;;57.05;33.70;;;2.20;99.90;;;;;;5018501;28;20045;-78
2022/03/02 04:43:32;;;;;;;61.55;35.63;;;2.20;99.90;;;;;;5017984;28;20485;-78
2022/03/02 04:45:59;;;;;;;56.10;33.50;;;2.20;99.90;;;;;;5000811;28;20040;-78
2022/03/02 04:48:24;;;;;;;58.38;33.97;;;2.20;99.90;;;;;;5011026;28;20094;-78
2022/03/02 04:50:50;;;;;;;58.40;34.03;;;2.20;99.90;;;;;;5017042;28;20677;-79
2022/03/02 04:53:16;;;;;;;63.13;34.75;;;2.20;99.90;;;;;;5018323;28;20476;-78
2022/03/02 04:55:44;;;;;;;56.47;33.80;;;2.10;99.90;;;;;;5003750;28;20029;-78
2022/03/02 04:58:11;;;;;;;58.78;33.22;;;2.00;99.90;;;;;;5018548;28;20454;-78
2022/03/02 05:00:37;;;;;;;57.38;33.97;;;2.10;99.90;;;;;;5003030;28;20793;-78
2022/03/02 05:03:05;;;;;;;55.70;32.95;;;1.90;99.90;;;;;;5016689;28;20048;-79
2022/03/02 05:05:35;;;;;;;57.38;34.35;;;1.90;99.90;;;;;;4998061;28;20492;-79
2022/03/02 05:08:01;;;;;;;59.10;33.63;;;1.90;99.90;;;;;;5003966;28;20072;-78
2022/03/02 05:10:27;;;;;;;59.03;33.35;;;1.80;99.90;;;;;;5019536;28;20170;-78
2022/03/02 05:12:53;;;;;;;61.72;33.65;;;1.80;99.90;;;;;;5020550;28;20128;-78
2022/03/02 05:15:19;;;;;;;61.05;34.25;;;1.80;99.90;;;;;;5019758;28;20044;-78
2022/03/02 05:17:46;;;;;;;69.15;35.08;;;1.90;99.90;;;;;;5019651;28;20109;-78
2022/03/02 05:20:13;;;;;;;61.50;34.00;;;1.80;99.90;;;;;;5004764;28;20045;-78
2022/03/02 05:22:42;;;;;;;57.70;34.00;;;1.70;99.90;;;;;;5015569;28;20354;-78
2022/03/02 05:25:10;;;;;;;58.55;32.95;;;1.70;99.90;;;;;;5009052;28;20937;-78
2022/03/02 05:27:36;;;;;;;58.67;33.95;;;1.70;99.90;;;;;;5000020;28;20045;-78
2022/03/02 05:30:03;;;;;;;64.95;35.15;;;1.80;99.90;;;;;;5018285;28;20095;-78
2022/03/02 05:32:29;;;;;;;60.85;33.67;;;1.50;99.90;;;;;;5002515;28;20036;-79
2022/03/02 05:34:55;;;;;;;59.25;34.03;;;1.50;99.90;;;;;;4999691;28;20045;-78
2022/03/02 05:37:21;;;;;;;59.97;33.97;;;1.60;99.90;;;;;;5014910;28;20102;-78
2022/03/02 05:39:46;;;;;;;61.55;35.72;;;1.40;99.90;;;;;;5004116;28;20040;-79
2022/03/02 05:42:12;;;;;;;59.40;32.53;;;1.50;99.90;;;;;;5016751;28;20083;-78
2022/03/02 05:44:38;;;;;;;60.63;34.08;;;1.40;99.90;;;;;;5001944;28;20055;-78
2022/03/02 05:47:04;;;;;;;60.08;34.40;;;1.30;99.90;;;;;;5019191;28;20075;-78
2022/03/02 05:49:30;;;;;;;58.15;32.78;;;1.30;99.90;;;;;;4998419;28;20084;-78
2022/03/02 05:51:55;;;;;;;59.72;33.83;;;1.30;99.90;;;;;;4998530;28;20051;-78
2022/03/02 05:54:21;;;;;;;61.08;35.55;;;1.20;99.90;;;;;;5017783;28;20055;-79
2022/03/02 05:56:47;;;;;;;58.25;33.97;;;1.10;99.90;;;;;;5017363;28;20465;-79
2022/03/02 05:59:14;;;;;;;59.53;33.55;;;1.20;99.90;;;;;;5017972;28;20032;-79
2022/03/02 06:01:41;;;;;;;59.28;33.10;;;1.00;99.90;;;;;;5017249;28;20132;-79
2022/03/02 06:04:10;;;;;;;54.97;31.80;;;1.10;99.90;;;;;;5014463;28;20053;-79
2022/03/02 06:06:35;;;;;;;56.67;33.17;;;1.00;99.90;;;;;;5016328;28;20050;-79
2022/03/02 06:09:08;;;;;;;59.72;33.33;;;0.90;99.90;;;;;;5015846;28;20135;-79
2022/03/02 06:11:36;;;;;;;58.88;33.28;;;1.00;99.90;;;;;;5018383;28;20120;-79
2022/03/02 06:14:03;;;;;;;61.60;34.03;;;1.10;99.90;;;;;;5003175;28;20464;-79
2022/03/02 06:16:29;;;;;;;59.65;34.38;;;1.00;99.90;;;;;;5013008;28;20090;-79
2022/03/02 06:18:56;;;;;;;70.63;35.90;;;1.00;99.90;;;;;;5000865;28;20216;-80
2022/03/02 06:21:26;;;;;;;60.25;33.92;;;1.00;99.90;;;;;;5016225;28;20128;-79
2022/03/02 06:23:53;;;;;;;61.45;34.50;;;1.00;99.90;;;;;;5001950;28;20040;-80
2022/03/02 06:26:19;;;;;;;64.18;34.70;;;0.90;99.90;;;;;;5020197;28;20060;-79
2022/03/02 06:28:45;;;;;;;59.70;33.97;;;1.00;99.90;;;;;;5002031;28;20041;-80
2022/03/02 06:31:13;;;;;;;63.60;35.72;;;1.10;99.90;;;;;;5002263;28;20392;-80
2022/03/02 06:33:39;;;;;;;67.05;34.78;;;1.10;99.90;;;;;;5003260;28;20160;-80
2022/03/02 06:36:05;;;;;;;68.47;37.25;;;1.00;99.90;;;;;;5000725;28;20061;-80
2022/03/02 06:38:31;;;;;;;68.90;35.72;;;1.00;99.90;;;;;;5001542;28;20127;-80
2022/03/02 06:41:30;;;;;;;62.80;35.22;;;1.20;99.90;;;;;;5001705;28;20622;-79
2022/03/02 06:43:59;;;;;;;66.03;36.15;;;1.20;99.90;;;;;;5005275;28;20072;-80
2022/03/02 06:46:57;;;;;;;67.15;36.05;;;1.30;99.90;;;;;;5002252;28;20185;-80
2022/03/02 06:49:33;;;;;;;64.80;36.08;;;1.30;99.90;;;;;;5013794;28;20481;-80
2022/03/02 06:52:03;;;;;;;66.80;37.20;;;1.30;99.90;;;;;;5000786;28;20041;-80
2022/03/02 06:54:31;;;;;;;66.68;36.25;;;1.30;99.90;;;;;;4999545;28;20752;-80
2022/03/02 06:56:59;;;;;;;63.90;36.22;;;1.30;99.90;;;;;;5012527;28;20048;-80
2022/03/02 06:59:41;;;;;;;66.63;37.47;;;1.30;99.90;;;;;;5014194;28;20044;-80
2022/03/02 07:02:15;;;;;;;71.55;37.55;;;1.40;99.90;;;;;;4999480;28;20049;-80
2022/03/02 07:04:43;;;;;;;65.18;35.20;;;1.40;99.90;;;;;;5014838;28;20069;-80
2022/03/02 07:07:11;;;;;;;60.15;34.42;;;1.40;99.90;;;;;;5007842;28;20037;-80
2022/03/02 07:09:37;;;;;;;65.07;37.40;;;1.40;99.90;;;;;;4998242;28;20193;-80
2022/03/02 07:12:05;;;;;;;64.22;37.00;;;1.50;99.90;;;;;;5013986;28;20124;-79
2022/03/02 07:14:34;;;;;;;58.40;34.90;;;1.60;99.90;;;;;;4999598;28;20049;-80
2022/03/02 07:17:02;;;;;;;63.35;36.70;;;1.50;99.90;;;;;;4999583;28;20043;-80
2022/03/02 07:19:28;;;;;;;59.95;36.25;;;1.60;99.90;;;;;;5015310;28;20048;-80
2022/03/02 07:22:02;;;;;;;61.85;36.15;;;1.70;99.90;;;;;;4998327;28;20087;-80
2022/03/02 07:24:35;;;;;;;64.87;36.50;;;1.70;99.90;;;;;;5016387;28;20056;-80
2022/03/02 07:27:04;;;;;;;64.78;36.15;;;1.80;99.90;;;;;;5030140;28;20287;-80
2022/03/02 07:29:35;;;;;;;60.75;36.33;;;2.00;99.90;;;;;;5006693;28;20042;-80
2022/03/02 07:32:02;;;;;;;57.00;35.55;;;2.10;99.90;;;;;;5012793;28;20218;-80
2022/03/02 07:34:30;;;;;;;60.78;35.25;;;2.10;99.90;;;;;;5013536;28;20033;-80
2022/03/02 07:36:59;;;;;;;68.03;36.20;;;2.20;99.90;;;;;;4997626;28;20431;-80
2022/03/02 07:39:25;;;;;;;61.80;35.83;;;2.20;99.90;;;;;;5004390;28;20041;-80
2022/03/02 07:41:51;;;;;;;61.45;36.17;;;2.30;99.90;;;;;;5018836;28;20486;-80
2022/03/02 07:44:17;;;;;;;62.13;34.92;;;2.40;99.90;;;;;;5014511;28;20037;-80
2022/03/02 07:46:43;;;;;;;61.65;34.95;;;2.50;99.90;;;;;;5014736;28;20242;-81
2022/03/02 07:49:09;;;;;;;59.90;34.03;;;2.50;99.90;;;;;;5000393;28;20966;-81
2022/03/02 07:51:36;;;;;;;62.28;34.60;;;2.70;99.90;;;;;;5014338;28;20052;-80
2022/03/02 07:54:04;;;;;;;63.63;34.47;;;2.70;99.90;;;;;;4999749;28;20390;-80
2022/03/02 07:56:31;;;;;;;56.47;33.22;;;2.80;99.90;;;;;;5002073;28;20029;-80
2022/03/02 07:59:02;;;;;;;60.97;33.33;;;2.90;99.90;;;;;;5001002;28;20440;-80
2022/03/02 08:01:31;;;;;;;58.42;33.92;;;2.90;99.90;;;;;;5017080;28;20037;-80
2022/03/02 08:03:58;;;;;;;56.53;34.38;;;3.10;99.90;;;;;;5021296;28;20048;-80
2022/03/02 08:06:25;;;;;;;54.47;33.00;;;3.10;99.90;;;;;;4997145;28;20451;-80
2022/03/02 08:08:51;;;;;;;53.22;32.42;;;3.20;99.90;;;;;;5011167;28;20037;-80
2022/03/02 08:11:17;;;;;;;52.58;32.45;;;3.30;99.90;;;;;;5002292;28;20914;-80
2022/03/02 08:13:49;;;;;;;56.63;33.80;;;3.30;99.90;;;;;;5031147;28;20056;-80
2022/03/02 08:16:16;;;;;;;52.17;31.75;;;3.50;99.90;;;;;;4997705;28;21011;-79
2022/03/02 08:18:41;;;;;;;50.72;31.73;;;3.40;99.90;;;;;;5001892;28;20051;-79
2022/03/02 08:21:10;;;;;;;48.30;30.63;;;3.50;99.90;;;;;;5017660;28;20041;-79
2022/03/02 08:23:41;;;;;;;50.05;31.30;;;3.60;99.90;;;;;;5003877;28;20107;-79
2022/03/02 08:26:08;;;;;;;47.70;31.10;;;3.80;99.90;;;;;;5006166;28;20376;-79
2022/03/02 08:28:43;;;;;;;47.40;29.70;;;3.90;99.90;;;;;;5001775;28;20041;-79
2022/03/02 08:31:10;;;;;;;50.78;30.40;;;3.90;99.90;;;;;;5001901;28;20111;-79
2022/03/02 08:33:44;;;;;;;52.08;32.55;;;4.00;99.90;;;;;;5017927;28;20378;-79
2022/03/02 08:36:11;;;;;;;50.60;31.30;;;4.20;99.90;;;;;;5010835;28;20097;-79
2022/03/02 08:38:42;;;;;;;47.75;29.40;;;4.10;99.90;;;;;;5000233;28;20405;-79
2022/03/02 08:41:12;;;;;;;49.88;30.27;;;4.30;99.90;;;;;;5000959;28;20041;-79
2022/03/02 08:43:38;;;;;;;46.67;29.02;;;4.40;99.90;;;;;;5018855;28;20496;-78
2022/03/02 08:46:07;;;;;;;48.30;29.92;;;4.40;99.90;;;;;;5009630;28;20044;-79
2022/03/02 08:48:42;;;;;;;48.50;30.85;;;4.50;99.90;;;;;;4992287;28;20393;-79
2022/03/02 08:51:16;;;;;;;47.25;30.02;;;4.60;99.90;;;;;;4997892;28;20053;-79
2022/03/02 08:53:49;;;;;;;49.25;30.15;;;4.70;99.90;;;;;;4997463;28;20508;-79
2022/03/02 08:56:20;;;;;;;45.30;29.52;;;4.80;99.90;;;;;;4999038;28;20454;-79
2022/03/02 08:58:48;;;;;;;48.97;29.08;;;4.80;99.90;;;;;;5017282;28;20041;-79
2022/03/02 09:01:18;;;;;;;45.45;28.73;;;5.00;99.90;;;;;;5004488;28;20071;-79
2022/03/02 09:03:53;;;;;;;45.30;27.80;;;5.00;99.90;;;;;;4994324;28;20123;-79
2022/03/02 09:06:23;;;;;;;43.95;28.40;;;5.20;99.90;;;;;;5000413;28;20044;-79
2022/03/02 09:08:49;;;;;;;47.40;27.77;;;5.10;99.90;;;;;;4992567;28;20065;-79
2022/03/02 09:11:15;;;;;;;43.28;28.23;;;5.30;99.90;;;;;;5014358;28;20107;-79
2022/03/02 09:13:40;;;;;;;43.85;29.23;;;5.30;99.90;;;;;;4999951;28;20408;-79
2022/03/02 09:16:10;;;;;;;39.53;26.42;;;5.40;99.90;;;;;;4996802;28;20267;-79
2022/03/02 09:18:37;;;;;;;43.03;28.13;;;5.40;99.90;;;;;;4999201;28;20064;-79
2022/03/02 09:21:05;;;;;;;46.33;27.65;;;5.50;99.90;;;;;;4996796;28;20063;-79
2022/03/02 09:23:38;;;;;;;41.83;28.05;;;5.60;99.90;;;;;;5021317;28;20800;-79
2022/03/02 09:26:13;;;;;;;41.65;28.00;;;5.50;99.90;;;;;;5010738;28;20040;-79
2022/03/02 09:28:51;;;;;;;39.78;26.63;;;5.70;99.90;;;;;;4995550;28;20041;-79
2022/03/02 09:31:22;;;;;;;39.50;25.75;;;5.80;99.90;;;;;;4999350;28;20037;-79
2022/03/02 09:33:54;;;;;;;40.60;26.52;;;5.90;99.90;;;;;;5016011;28;20037;-78
2022/03/02 09:36:23;;;;;;;43.40;26.40;;;6.00;99.90;;;;;;5012979;28;20224;-79
2022/03/02 09:38:50;;;;;;;37.60;24.88;;;6.10;99.90;;;;;;5005403;28;20072;-79
2022/03/02 09:41:21;;;;;;;41.63;26.10;;;6.20;99.90;;;;;;5006469;28;20535;-79
2022/03/02 09:43:48;;;;;;;40.25;26.00;;;6.30;99.90;;;;;;5008956;28;20120;-79
2022/03/02 09:46:18;;;;;;;37.53;26.15;;;6.30;99.90;;;;;;5020217;28;20079;-79
2022/03/02 09:48:48;;;;;;;41.25;26.17;;;6.50;99.90;;;;;;4999309;28;20081;-79
2022/03/02 09:51:22;;;;;;;41.03;25.90;;;6.50;99.90;;;;;;4996073;28;20052;-79
2022/03/02 09:53:52;;;;;;;40.45;25.77;;;6.60;99.90;;;;;;5032149;28;20527;-79
2022/03/02 09:56:22;;;;;;;38.03;25.52;;;6.70;99.90;;;;;;5003395;28;20306;-79
2022/03/02 09:58:52;;;;;;;38.17;26.65;;;6.70;99.90;;;;;;5012224;28;20178;-79
2022/03/02 10:01:24;;;;;;;39.72;26.65;;;6.80;99.90;;;;;;5012287;28;20044;-79
2022/03/02 10:03:57;;;;;;;38.10;26.30;;;6.90;99.90;;;;;;5014781;28;20041;-78
2022/03/02 10:06:23;;;;;;;37.22;24.77;;;6.90;99.90;;;;;;5000908;28;20441;-79
2022/03/02 10:08:51;;;;;;;40.20;26.45;;;6.90;99.90;;;;;;4992818;28;20077;-79
2022/03/02 10:11:25;;;;;;;34.85;23.85;;;6.90;99.90;;;;;;5003627;28;20102;-80
2022/03/02 10:13:56;;;;;;;41.92;26.10;;;7.20;99.90;;;;;;5021694;28;20063;-79
2022/03/02 10:16:25;;;;;;;38.92;24.98;;;7.40;99.90;;;;;;5002837;28;20040;-79
2022/03/02 10:18:59;;;;;;;38.28;25.75;;;7.40;99.90;;;;;;5006598;28;20049;-79
2022/03/02 10:21:33;;;;;;;35.65;23.17;;;7.40;99.90;;;;;;5015355;28;20060;-79
2022/03/02 10:24:02;;;;;;;35.55;24.65;;;7.50;99.90;;;;;;5012943;28;20037;-79
2022/03/02 10:26:34;;;;;;;35.70;24.05;;;7.60;99.90;;;;;;5012076;28;20353;-79
2022/03/02 10:29:33;;;;;;;40.72;24.52;;;7.70;99.90;;;;;;5003615;28;20358;-79
2022/03/02 10:32:08;;;;;;;38.28;24.55;;;7.90;99.90;;;;;;5017681;28;20208;-80
2022/03/02 10:34:37;;;;;;;;;;;8.00;99.90;;;;;;4993504;28;20095;-79
2022/03/02 10:37:08;;;;;;;36.13;23.63;;;8.10;99.90;;;;;;5015308;28;20059;-80
2022/03/02 10:39:53;;;;;;;34.75;24.17;;;8.20;99.90;;;;;;5014835;28;20621;-79
2022/03/02 10:42:38;;;;;;;34.90;23.30;;;8.20;99.90;;;;;;5033302;28;20071;-79
2022/03/02 10:45:15;;;;;;;36.05;23.15;;;8.20;99.90;;;;;;5013744;28;20048;-80
2022/03/02 10:48:17;;;;;;;32.53;23.02;;;8.30;99.90;;;;;;5017716;28;20064;-79
2022/03/02 10:50:46;;;;;;;33.00;23.00;;;8.50;99.90;;;;;;5001759;28;20033;-79
2022/03/02 10:53:18;;;;;;;31.98;22.85;;;8.60;99.90;;;;;;5018163;28;20048;-80
2022/03/02 10:55:51;;;;;;;34.08;22.55;;;8.70;99.90;;;;;;5019835;28;20061;-80
2022/03/02 10:58:19;;;;;;;32.28;22.10;;;8.50;59.70;;;;;;5033682;28;20152;-79
2022/03/02 11:00:46;;;;;;;38.80;21.77;;;8.60;99.90;;;;;;5035139;28;20045;-80
2022/03/02 11:03:15;;;;;;;31.42;22.13;;;8.80;58.40;;;;;;5022434;28;20171;-79
2022/03/02 11:05:41;;;;;;;33.42;22.17;;;8.80;42.90;;;;;;4999235;28;20156;-80
2022/03/02 11:08:07;;;;;;;33.63;22.20;;;8.90;22.20;;;;;;4995481;28;20568;-80
2022/03/02 11:10:33;;;;;;;30.77;22.42;;;9.00;20.90;;;;;;5006395;28;20037;-80
2022/03/02 11:13:13;;;;;;;30.13;22.00;;;8.80;1.00;;;;;;5018868;28;20052;-79
2022/03/02 11:16:02;;;;;;;34.65;22.58;;;9.10;5.40;;;;;;5021543;28;20116;-80
2022/03/02 11:18:49;;;;;;;38.10;22.15;;;9.20;30.10;;;;;;5002875;28;20045;-80
2022/03/02 11:21:20;;;;;;;32.70;21.17;;;9.30;1.00;;;;;;5016235;28;20132;-80
2022/03/02 11:23:53;;;;;;;29.08;21.17;;;9.20;1.00;;;;;;5018618;28;20077;-80
2022/03/02 11:26:30;;;;;;;31.88;21.25;;;9.10;1.00;;;;;;5009725;28;20079;-80
2022/03/02 11:29:02;;;;;;;30.33;20.65;;;9.30;1.00;;;;;;5020793;28;20037;-80
2022/03/02 11:31:31;;;;;;;30.70;21.48;;;9.40;1.00;;;;;;5019086;28;20120;-79
2022/03/02 11:34:27;;;;;;;30.30;20.67;;;9.40;1.00;;;;;;5018894;28;20037;-80
2022/03/02 11:37:05;;;;;;;34.35;21.58;;;9.60;1.00;;;;;;5003236;28;20107;-80
2022/03/02 11:39:32;;;;;;;30.35;21.05;;;9.70;1.00;;;;;;5015116;28;20107;-80
2022/03/02 11:42:04;;;;;;;29.90;21.00;;;9.80;1.00;;;;;;5005560;28;20143;-80
2022/03/02 11:44:36;;;;;;;28.55;21.27;;;10.00;1.00;;;;;;5013756;28;20083;-80
2022/03/02 11:47:07;;;;;;;30.58;21.45;;;10.00;99.90;;;;;;5015249;28;20049;-80
2022/03/02 11:49:38;;;;;;;29.75;21.13;;;10.20;1.00;;;;;;5005116;28;20040;-80
2022/03/02 11:52:14;;;;;;;30.73;22.00;;;10.30;1.00;;;;;;5018786;28;20116;-80
2022/03/02 11:54:58;;;;;;;32.50;21.55;;;10.30;99.90;;;;;;5016521;28;20565;-80
2022/03/02 11:57:28;;;;;;;27.85;20.67;;;10.40;99.90;;;;;;5016926;28;20491;-80
2022/03/02 12:00:13;;;;;;;28.05;21.05;;;10.40;99.90;;;;;;5007391;28;20466;-80
2022/03/02 12:02:43;;;;;;;31.10;20.57;;;10.40;99.90;;;;;;5002659;28;20040;-80
2022/03/02 12:05:10;;;;;;;28.00;20.83;;;10.50;99.90;;;;;;5020577;28;20708;-80
2022/03/02 12:07:50;;;;;;;30.20;21.10;;;10.50;99.90;;;;;;5014267;28;20047;-80
2022/03/02 12:10:31;;;;;;;29.30;20.80;;;10.60;99.90;;;;;;5017551;28;20388;-80
2022/03/02 12:13:00;;;;;;;27.15;20.33;;;10.70;99.90;;;;;;5016428;28;20535;-80
2022/03/02 12:15:49;;;;;;;29.00;20.67;;;10.70;99.90;;;;;;5013876;28;20040;-80
2022/03/02 12:18:16;;;;;;;26.02;19.30;;;10.70;99.90;;;;;;5022062;28;20059;-80
2022/03/02 12:20:52;;;;;;;27.20;19.52;;;10.80;99.90;;;;;;5019785;28;20087;-80
2022/03/02 12:23:33;;;;;;;28.73;20.05;;;11.00;99.90;;;;;;5016570;28;20065;-80
2022/03/02 12:26:09;;;;;;;29.42;20.05;;;11.20;99.90;;;;;;5019314;28;20099;-80
2022/03/02 12:28:34;;;;;;;30.80;19.85;;;11.10;99.90;;;;;;5003102;28;20489;-80
2022/03/02 12:31:11;;;;;;;25.20;19.58;;;10.90;1.00;;;;;;5015026;28;20041;-80
2022/03/02 12:33:37;;;;;;;26.50;18.63;;;10.60;25.30;;;;;;5016807;28;20542;-80
2022/03/02 12:36:06;;;;;;;27.17;19.80;;;11.00;99.90;;;;;;5003319;28;20195;-80
2022/03/02 12:38:32;;;;;;;25.20;18.58;;;11.40;99.90;;;;;;5006145;28;20128;-80
2022/03/02 12:40:59;;;;;;;27.67;19.40;;;11.50;98.80;;;;;;5015902;28;20271;-80
2022/03/02 12:43:26;;;;;;;29.17;19.15;;;11.60;4.80;;;;;;5019903;28;20061;-80